Hishimaru — JD3929 — position and weather

sailwx.info

Track history (hours):
 
Tides and Currents Weather Stations Pressure Air Temp Water Temp Dewpoint Dewpoint Depression Visibility Wind Speed Wind Dir Waves Ship Positions

Hishimaru

Last reported at 2017-Oct-18 12:47 UTC. Time now 2017-Oct-20 12:45 UTC.
Position N 34°57' E 139°44'.

Length 67 m; draft 4.5 m.

Type: Tanker. MMSI: 431007082.

Date/timePositionNaut miles runAvg speedWind from/ knotsBaromVisibWave heightAir tempDewpointWater temp
2017-Oct-18 12:47N 34°57' E 139°44'412.9
2017-Oct-18 12:30N 35°00' E 139°44'612.7
2017-Oct-18 12:00N 35°07' E 139°45'612.8
2017-Oct-18 11:30N 35°13' E 139°46'613.0
2017-Oct-18 11:00N 35°19' E 139°43'612.0
2017-Oct-18 10:30N 35°25' E 139°44'713.0
2017-Oct-18 09:59N 35°29' E 139°50'9 0.9
2017-Oct-17 23:37N 35°31' E 140°01'0 3.3
2017-Oct-17 23:29N 35°30' E 140°01'611.7
2017-Oct-17 22:58N 35°29' E 139°53'511.6
2017-Oct-17 22:30N 35°26' E 139°48'611.5
2017-Oct-17 22:00N 35°21' E 139°45'510.4
2017-Oct-17 21:30N 35°16' E 139°47'611.8
2017-Oct-17 21:00N 35°10' E 139°46'612.5
2017-Oct-17 20:30N 35°04' E 139°42'713.3
2017-Oct-17 20:00N 34°60' E 139°36'  
2017-Oct-15 07:59N 34°51' E 139°38'611.9
2017-Oct-15 07:29N 34°51' E 139°45'  
2017-Oct-10 19:17N 34°51' E 139°46'511.6
2017-Oct-10 18:49N 34°52' E 139°52'612.6
2017-Oct-10 18:21N 34°53' E 139°59'13 0.4
2017-Oct-09 06:30N 34°57' E 139°44'612.5
2017-Oct-09 06:00N 35°03' E 139°44'713.1
2017-Oct-09 05:30N 35°10' E 139°46'612.6
2017-Oct-09 05:00N 35°16' E 139°46'15 1.1
2017-Oct-08 15:17N 35°29' E 139°55'0 0.0
2017-Oct-08 14:47N 35°29' E 139°55'  
Track history (hours):
 
Tides and Currents Weather Stations Pressure Air Temp Water Temp Dewpoint Dewpoint Depression Visibility Wind Speed Wind Dir Waves Ship Positions

Hishimaru

Last reported at 2017-Oct-18 12:47 UTC. Time now 2017-Oct-20 12:45 UTC.
Position N 34°57' E 139°44'.

Length 67 m; draft 4.5 m.

Type: Tanker. MMSI: 431007082.

Date/timePositionNaut miles runAvg speedWind from/ knotsBaromVisibWave heightAir tempDewpointWater temp
2017-Oct-18 12:47N 34°57' E 139°44'412.9
2017-Oct-18 12:30N 35°00' E 139°44'612.7
2017-Oct-18 12:00N 35°07' E 139°45'612.8
2017-Oct-18 11:30N 35°13' E 139°46'613.0
2017-Oct-18 11:00N 35°19' E 139°43'612.0
2017-Oct-18 10:30N 35°25' E 139°44'713.0
2017-Oct-18 09:59N 35°29' E 139°50'9 0.9
2017-Oct-17 23:37N 35°31' E 140°01'0 3.3
2017-Oct-17 23:29N 35°30' E 140°01'611.7
2017-Oct-17 22:58N 35°29' E 139°53'511.6
2017-Oct-17 22:30N 35°26' E 139°48'611.5
2017-Oct-17 22:00N 35°21' E 139°45'510.4
2017-Oct-17 21:30N 35°16' E 139°47'611.8
2017-Oct-17 21:00N 35°10' E 139°46'612.5
2017-Oct-17 20:30N 35°04' E 139°42'713.3
2017-Oct-17 20:00N 34°60' E 139°36'  
2017-Oct-15 07:59N 34°51' E 139°38'611.9
2017-Oct-15 07:29N 34°51' E 139°45'  
2017-Oct-10 19:17N 34°51' E 139°46'511.6
2017-Oct-10 18:49N 34°52' E 139°52'612.6
2017-Oct-10 18:21N 34°53' E 139°59'13 0.4
2017-Oct-09 06:30N 34°57' E 139°44'612.5
2017-Oct-09 06:00N 35°03' E 139°44'713.1
2017-Oct-09 05:30N 35°10' E 139°46'612.6
2017-Oct-09 05:00N 35°16' E 139°46'15 1.1
2017-Oct-08 15:17N 35°29' E 139°55'0 0.0
2017-Oct-08 14:47N 35°29' E 139°55'  

Dump ship's entire track history